Time;durP1;ratioP1;P1;durP2;ratioP2;P2;SDS_P1;SDS_P2;PMS_P1;PMS_P2;Temp;Humidity;BMP_temperature;BMP_pressure;BME280_temperature;BME280_humidity;BME280_pressure;Samples;Min_cycle;Max_cycle;Signal;HPM_P1;HPM_P2
2022/01/14 00:01:16;;;;;;;3.40;2.70;;;2.30;96.30;;;;;;4900647;29;20451;-80
2022/01/14 00:03:42;;;;;;;5.10;2.83;;;2.40;96.30;;;;;;4917376;29;20185;-81
2022/01/14 00:06:08;;;;;;;4.57;3.50;;;2.40;96.30;;;;;;4917565;29;20412;-78
2022/01/14 00:08:34;;;;;;;5.10;3.67;;;2.50;96.30;;;;;;4900527;29;20223;-78
2022/01/14 00:11:00;;;;;;;4.03;2.70;;;2.50;96.30;;;;;;4917402;29;20424;-77
2022/01/14 00:13:48;;;;;;;7.00;3.10;;;2.50;96.30;;;;;;4917144;29;20464;-79
2022/01/14 00:16:14;;;;;;;4.40;3.13;;;2.40;96.30;;;;;;4916477;29;20460;-78
2022/01/14 00:18:39;;;;;;;6.77;2.70;;;2.40;96.30;;;;;;4916022;29;20424;-77
2022/01/14 00:21:05;;;;;;;6.33;3.80;;;2.40;96.30;;;;;;4916060;29;20196;-79
2022/01/14 00:23:35;;;;;;;7.23;3.20;;;2.40;96.30;;;;;;4917021;29;20753;-80
2022/01/14 00:31:51;;;;;;;10.13;3.03;;;2.40;96.30;;;;;;4898158;29;20480;-79
2022/01/14 00:34:17;;;;;;;5.30;3.00;;;2.30;96.30;;;;;;4896544;29;20480;-80
2022/01/14 00:36:43;;;;;;;4.07;3.30;;;2.20;96.30;;;;;;4916163;29;20416;-78
2022/01/14 00:39:11;;;;;;;4.80;3.60;;;2.20;96.30;;;;;;4900046;29;20183;-81
2022/01/14 00:41:37;;;;;;;4.50;3.40;;;2.10;96.30;;;;;;4916808;29;20460;-78
2022/01/14 00:44:10;;;;;;;5.17;2.90;;;2.20;96.30;;;;;;4916737;29;20928;-78
2022/01/14 00:46:35;;;;;;;5.37;3.30;;;2.20;96.30;;;;;;4916872;29;20184;-79
2022/01/14 00:49:01;;;;;;;3.63;2.97;;;2.30;96.30;;;;;;4909679;29;20477;-80
2022/01/14 00:51:27;;;;;;;5.93;3.23;;;2.30;96.30;;;;;;4881137;29;20205;-79
2022/01/14 00:53:52;;;;;;;3.93;2.90;;;2.30;96.30;;;;;;4897593;29;20461;-78
2022/01/14 05:01:13;;;;;;;4.10;2.60;;;0.70;96.30;;;;;;5480077;23;20510;-78
2022/01/14 05:03:38;;;;;;;3.43;2.50;;;0.60;96.30;;;;;;4858416;29;20431;-77
2022/01/14 05:06:06;;;;;;;6.20;3.10;;;0.70;96.30;;;;;;4860571;29;20238;-79
2022/01/14 05:08:37;;;;;;;4.90;2.50;;;0.60;96.30;;;;;;4860465;29;20226;-80
2022/01/14 05:11:21;;;;;;;3.30;3.00;;;0.50;96.30;;;;;;4850873;29;20446;-78
2022/01/14 05:13:47;;;;;;;5.70;2.63;;;0.50;96.30;;;;;;4863064;29;20450;-78
2022/01/14 05:16:12;;;;;;;3.27;2.80;;;0.50;96.30;;;;;;4865933;29;20567;-77
2022/01/14 05:18:38;;;;;;;4.13;3.33;;;0.40;96.30;;;;;;4861896;29;20178;-80
2022/01/14 05:21:07;;;;;;;3.70;2.67;;;0.40;96.30;;;;;;4878737;29;20221;-78
2022/01/14 05:23:33;;;;;;;5.07;3.30;;;0.40;96.30;;;;;;4876759;29;20272;-79
2022/01/14 05:25:58;;;;;;;4.00;3.03;;;0.30;96.30;;;;;;4878366;29;20517;-78
2022/01/14 05:28:24;;;;;;;5.90;2.57;;;0.40;96.30;;;;;;4862143;29;20977;-79
2022/01/14 05:30:50;;;;;;;4.57;3.07;;;0.30;96.30;;;;;;4877498;29;20566;-79
2022/01/14 05:33:16;;;;;;;3.67;2.90;;;0.30;96.30;;;;;;4861558;29;20237;-80
2022/01/14 05:35:42;;;;;;;5.80;3.10;;;0.30;96.30;;;;;;4851679;29;20174;-78
2022/01/14 05:38:08;;;;;;;4.63;3.30;;;0.30;96.30;;;;;;4843598;29;20502;-79
2022/01/14 05:40:33;;;;;;;3.40;2.50;;;0.40;96.30;;;;;;4843349;29;20202;-79
2022/01/14 05:42:59;;;;;;;4.40;2.40;;;0.50;96.30;;;;;;4860096;29;20246;-79
2022/01/14 05:45:26;;;;;;;3.40;2.27;;;0.60;96.30;;;;;;4877977;29;20196;-79
2022/01/14 05:47:52;;;;;;;4.03;2.53;;;0.60;96.30;;;;;;4878383;29;20178;-79
2022/01/14 05:50:20;;;;;;;3.23;2.10;;;0.60;96.30;;;;;;4878464;29;20471;-79
2022/01/14 05:52:47;;;;;;;3.83;2.33;;;0.50;96.30;;;;;;4878448;29;20795;-76
2022/01/14 05:55:15;;;;;;;3.17;2.10;;;0.40;96.30;;;;;;4877801;29;20434;-78
2022/01/14 05:57:41;;;;;;;2.67;1.83;;;0.40;96.30;;;;;;4876867;29;20422;-78
2022/01/14 06:00:09;;;;;;;3.60;2.47;;;0.40;96.30;;;;;;4862283;29;20422;-81
2022/01/14 07:04:44;;;;;;;3.63;2.20;;;0.60;96.30;;;;;;4996971;23;20493;-80
2022/01/14 07:07:09;;;;;;;2.50;1.97;;;0.50;96.30;;;;;;4901362;29;20421;-79
2022/01/14 07:09:36;;;;;;;4.03;2.10;;;0.60;96.30;;;;;;4899762;29;20268;-78
2022/01/14 07:12:02;;;;;;;4.63;2.40;;;0.60;96.30;;;;;;4899158;29;20213;-78
2022/01/14 07:14:29;;;;;;;2.93;2.00;;;0.60;96.30;;;;;;4906556;29;20455;-78
2022/01/14 07:16:55;;;;;;;2.70;2.00;;;0.50;96.30;;;;;;4892994;29;20429;-79
2022/01/14 07:19:22;;;;;;;3.50;2.30;;;0.60;96.30;;;;;;4889576;29;20462;-79
2022/01/14 07:21:48;;;;;;;4.70;2.50;;;0.60;96.30;;;;;;4889168;29;20452;-78
2022/01/14 07:24:14;;;;;;;4.67;2.47;;;0.70;96.30;;;;;;4882842;29;20425;-79
2022/01/14 07:26:43;;;;;;;4.03;2.10;;;1.00;96.30;;;;;;4882882;29;20184;-79
2022/01/14 07:29:09;;;;;;;5.90;2.53;;;1.10;96.30;;;;;;4882755;29;20429;-80
2022/01/14 07:31:34;;;;;;;4.17;2.40;;;1.10;96.30;;;;;;4882724;29;20472;-77
2022/01/14 07:34:00;;;;;;;2.40;1.90;;;1.20;96.30;;;;;;4899051;29;20219;-78
2022/01/14 07:36:26;;;;;;;4.00;2.40;;;1.20;96.30;;;;;;4899275;29;20213;-78
2022/01/14 07:38:51;;;;;;;2.90;2.00;;;1.20;96.30;;;;;;4899265;29;20878;-79
2022/01/14 07:41:17;;;;;;;3.80;1.97;;;1.20;96.30;;;;;;4882432;29;20737;-79
2022/01/14 07:43:47;;;;;;;4.17;2.20;;;1.30;96.30;;;;;;4898918;29;20705;-81
2022/01/14 07:46:13;;;;;;;3.17;2.03;;;1.30;96.30;;;;;;4899219;29;20420;-78
2022/01/14 07:48:38;;;;;;;3.73;2.00;;;1.20;96.30;;;;;;4882277;29;20516;-77
2022/01/14 07:51:04;;;;;;;3.37;2.30;;;1.20;96.30;;;;;;4882174;29;20239;-79
2022/01/14 07:53:30;;;;;;;3.63;2.30;;;1.20;96.30;;;;;;4898751;29;20637;-79
2022/01/14 07:55:55;;;;;;;3.87;2.00;;;1.20;96.30;;;;;;4882169;29;20177;-82
2022/01/14 07:58:22;;;;;;;4.70;2.57;;;1.30;96.30;;;;;;4882014;29;20199;-80
2022/01/14 08:00:48;;;;;;;2.17;1.53;;;1.30;96.30;;;;;;4881989;29;20212;-79
2022/01/14 08:03:13;;;;;;;2.83;2.23;;;1.40;96.30;;;;;;4883866;29;20441;-78
2022/01/14 08:05:39;;;;;;;3.63;2.13;;;1.50;96.30;;;;;;4897590;29;20189;-77
2022/01/14 08:08:07;;;;;;;1.60;1.30;;;1.40;96.30;;;;;;4898896;29;20263;-78
2022/01/14 08:10:34;;;;;;;4.93;2.00;;;1.40;96.30;;;;;;4897657;29;20590;-78
2022/01/14 08:13:01;;;;;;;3.90;2.10;;;1.50;96.30;;;;;;4898559;29;20424;-79
2022/01/14 08:15:26;;;;;;;3.80;2.87;;;1.50;96.30;;;;;;4897186;29;20989;-79
2022/01/14 08:17:53;;;;;;;3.43;2.00;;;1.70;96.30;;;;;;4898459;29;20561;-80
2022/01/14 08:20:19;;;;;;;2.23;1.93;;;1.80;96.30;;;;;;4897158;29;20264;-78
2022/01/14 08:22:44;;;;;;;4.20;2.70;;;1.80;96.30;;;;;;4897228;29;20573;-78
2022/01/14 08:25:10;;;;;;;2.67;2.00;;;1.80;96.30;;;;;;4898312;29;20188;-80
2022/01/14 08:27:36;;;;;;;3.97;2.23;;;1.80;96.30;;;;;;4898400;29;20713;-78
2022/01/14 08:30:03;;;;;;;9.00;2.40;;;1.90;96.30;;;;;;4897073;29;20589;-78
2022/01/14 08:32:29;;;;;;;3.80;2.00;;;2.00;96.30;;;;;;4895885;29;20233;-78
2022/01/14 08:34:54;;;;;;;3.27;1.90;;;2.10;96.30;;;;;;4896883;29;20559;-80
2022/01/14 08:37:20;;;;;;;3.23;2.17;;;2.00;96.30;;;;;;4898119;29;20671;-79
2022/01/14 08:39:45;;;;;;;3.70;1.80;;;2.00;96.30;;;;;;4896937;29;20177;-78
2022/01/14 08:42:12;;;;;;;2.90;2.30;;;2.00;96.30;;;;;;4896846;29;20197;-80
2022/01/14 08:44:38;;;;;;;3.23;2.20;;;2.00;96.30;;;;;;4897953;29;20252;-78
2022/01/14 08:47:08;;;;;;;4.93;2.10;;;2.10;96.30;;;;;;4896779;29;20570;-79
2022/01/14 08:49:33;;;;;;;3.20;1.83;;;2.20;96.30;;;;;;4896752;29;20664;-80
2022/01/14 08:51:59;;;;;;;8.83;2.93;;;2.20;96.30;;;;;;4896521;29;20452;-81
2022/01/14 08:54:24;;;;;;;4.47;2.23;;;2.30;96.30;;;;;;4897587;29;21031;-78
2022/01/14 08:56:50;;;;;;;6.30;1.90;;;2.30;96.30;;;;;;4897854;29;20260;-80
2022/01/14 08:59:17;;;;;;;2.80;2.23;;;2.40;96.30;;;;;;4898299;29;20185;-81
2022/01/14 09:01:43;;;;;;;3.60;2.10;;;2.40;96.30;;;;;;4898116;29;20209;-81
2022/01/14 09:04:09;;;;;;;5.40;3.00;;;2.40;96.30;;;;;;4898123;29;20445;-81
2022/01/14 09:06:35;;;;;;;3.43;1.80;;;2.50;96.30;;;;;;4899822;29;20185;-81
2022/01/14 09:09:00;;;;;;;4.90;2.47;;;2.50;96.30;;;;;;4899821;29;20429;-81
2022/01/14 09:11:26;;;;;;;2.63;2.27;;;2.50;96.30;;;;;;4897866;29;20212;-81
2022/01/14 09:13:51;;;;;;;5.13;2.40;;;2.50;96.30;;;;;;4897980;29;20576;-81
2022/01/14 09:16:20;;;;;;;3.53;2.43;;;2.50;96.30;;;;;;4898477;29;20573;-82
2022/01/14 09:18:48;;;;;;;4.10;2.53;;;2.50;96.30;;;;;;4899716;29;20172;-83
2022/01/14 09:21:15;;;;;;;5.17;2.90;;;2.50;96.30;;;;;;4898042;29;20441;-80
2022/01/14 09:23:43;;;;;;;3.67;2.30;;;2.50;96.30;;;;;;4898257;29;20429;-82
2022/01/14 09:26:09;;;;;;;4.60;2.10;;;2.60;96.30;;;;;;4898380;29;20469;-81
2022/01/14 09:28:34;;;;;;;3.90;2.63;;;2.60;96.30;;;;;;4899538;29;20433;-79
2022/01/14 09:31:00;;;;;;;3.10;2.80;;;2.70;96.30;;;;;;4898287;29;20264;-81
2022/01/14 09:33:25;;;;;;;3.43;2.63;;;2.60;96.30;;;;;;4897880;29;20205;-82
2022/01/14 09:35:51;;;;;;;8.40;2.80;;;2.80;96.30;;;;;;4898854;29;20185;-81
2022/01/14 09:38:17;;;;;;;8.00;3.00;;;2.70;96.30;;;;;;4900747;29;20185;-80
2022/01/14 09:40:47;;;;;;;3.87;2.57;;;2.80;96.30;;;;;;4900358;29;20231;-80
2022/01/14 09:43:14;;;;;;;6.27;3.70;;;2.70;96.30;;;;;;4898411;29;20421;-81
2022/01/14 09:45:39;;;;;;;6.20;2.93;;;2.80;96.30;;;;;;4899551;29;20512;-81
2022/01/14 09:48:05;;;;;;;6.43;3.87;;;2.80;96.30;;;;;;4901109;29;20453;-81
2022/01/14 09:50:31;;;;;;;5.13;3.03;;;2.90;96.30;;;;;;4901618;29;20767;-81
2022/01/14 09:52:56;;;;;;;6.73;3.77;;;2.90;96.30;;;;;;4915427;29;20460;-81
2022/01/14 09:55:26;;;;;;;6.43;4.00;;;2.80;96.30;;;;;;4900440;29;20267;-81
2022/01/14 09:57:54;;;;;;;5.63;3.30;;;2.80;96.30;;;;;;4900959;29;20200;-81
2022/01/14 10:00:20;;;;;;;5.53;3.40;;;2.90;96.30;;;;;;4901011;29;20426;-80
2022/01/14 10:02:46;;;;;;;4.17;3.10;;;2.90;96.30;;;;;;4899281;29;20492;-79
2022/01/14 10:05:35;;;;;;;5.70;3.40;;;2.90;96.30;;;;;;4900563;29;20418;-80
2022/01/14 10:08:09;;;;;;;5.87;4.00;;;2.90;96.30;;;;;;4884614;29;20759;-79
2022/01/14 10:10:38;;;;;;;8.33;4.00;;;2.80;96.30;;;;;;4884233;29;20445;-79
2022/01/14 10:13:22;;;;;;;9.60;4.33;;;2.80;96.30;;;;;;4883862;29;20429;-79
2022/01/14 10:16:00;;;;;;;6.60;4.00;;;2.80;96.30;;;;;;4884949;29;20425;-79
2022/01/14 10:18:26;;;;;;;9.40;4.70;;;3.00;96.30;;;;;;4884210;29;20414;-79
2022/01/14 10:20:52;;;;;;;5.47;3.87;;;3.00;96.30;;;;;;4883800;29;20445;-80
2022/01/14 10:23:44;;;;;;;6.30;3.97;;;3.00;96.30;;;;;;4884354;29;20181;-79
2022/01/14 10:26:11;;;;;;;7.43;4.37;;;3.10;96.30;;;;;;4889963;29;20917;-81
2022/01/14 10:28:37;;;;;;;12.03;4.33;;;3.30;96.30;;;;;;4889645;29;20425;-78
2022/01/14 10:31:03;;;;;;;6.90;4.07;;;3.60;96.30;;;;;;4889471;29;20484;-80
2022/01/14 10:33:29;;;;;;;6.63;4.80;;;3.60;96.30;;;;;;4888332;29;20230;-80
2022/01/14 10:35:56;;;;;;;6.40;4.13;;;4.10;96.30;;;;;;4898094;29;20425;-81
2022/01/14 10:38:24;;;;;;;4.93;3.77;;;5.00;96.30;;;;;;4881152;29;20481;-81
2022/01/14 10:40:52;;;;;;;8.07;5.10;;;5.40;96.30;;;;;;4881468;29;20448;-81
2022/01/14 10:43:21;;;;;;;7.10;4.80;;;4.70;96.30;;;;;;4880525;29;20775;-81
2022/01/14 10:45:48;;;;;;;8.10;4.80;;;4.40;96.30;;;;;;4883017;29;21053;-82
2022/01/14 10:48:16;;;;;;;10.60;5.97;;;3.80;96.30;;;;;;4898847;29;20504;-81
2022/01/14 10:50:54;;;;;;;11.63;5.83;;;3.60;96.30;;;;;;4897489;29;20941;-82
2022/01/14 10:53:27;;;;;;;12.70;5.93;;;3.90;96.30;;;;;;4880332;29;20484;-81
2022/01/14 10:55:59;;;;;;;8.70;5.57;;;4.50;96.30;;;;;;4881605;29;20416;-81
2022/01/14 10:58:31;;;;;;;10.67;5.20;;;4.70;96.30;;;;;;4883803;29;20421;-82
2022/01/14 11:01:13;;;;;;;13.60;7.37;;;4.10;96.30;;;;;;4900606;29;20910;-82
2022/01/14 11:03:41;;;;;;;12.13;7.37;;;3.40;96.30;;;;;;4888754;29;20836;-81
2022/01/14 11:06:31;;;;;;;13.07;7.63;;;3.20;96.30;;;;;;4899705;29;20855;-81
2022/01/14 11:09:22;;;;;;;12.93;8.60;;;3.00;96.30;;;;;;4899471;29;20973;-82
2022/01/14 11:11:49;;;;;;;11.40;7.83;;;2.90;96.30;;;;;;4900357;29;20432;-81
2022/01/14 11:14:15;;;;;;;10.97;6.60;;;2.50;96.30;;;;;;4898942;29;20457;-81
2022/01/14 11:16:41;;;;;;;12.40;6.53;;;2.40;96.30;;;;;;4899318;29;20428;-81
2022/01/14 11:19:09;;;;;;;16.03;8.13;;;2.00;96.30;;;;;;4899440;29;20500;-81
2022/01/14 11:24:23;;;;;;;14.60;8.50;;;1.90;96.30;;;;;;4900592;29;20429;-81
2022/01/14 11:26:56;;;;;;;13.20;8.53;;;1.90;96.30;;;;;;4898662;29;20425;-80
2022/01/14 11:29:23;;;;;;;14.43;9.13;;;1.80;96.30;;;;;;4898780;29;20453;-81
2022/01/14 11:31:57;;;;;;;12.40;9.03;;;1.80;96.30;;;;;;4898714;29;20476;-79
2022/01/14 11:34:33;;;;;;;15.80;9.53;;;1.60;96.30;;;;;;4898414;29;20464;-81
2022/01/14 11:37:01;;;;;;;18.23;9.97;;;1.60;96.30;;;;;;4879882;29;21001;-81
2022/01/14 11:39:30;;;;;;;14.73;10.33;;;1.60;96.30;;;;;;4879995;29;20447;-81
2022/01/14 11:42:13;;;;;;;14.50;9.73;;;1.60;96.30;;;;;;4880113;29;20473;-81
2022/01/14 11:44:42;;;;;;;19.30;8.17;;;1.50;96.30;;;;;;4879618;29;20415;-79
2022/01/14 11:47:36;;;;;;;14.43;8.60;;;1.40;96.30;;;;;;4880047;29;20418;-82
2022/01/14 11:50:05;;;;;;;16.03;9.60;;;1.40;96.30;;;;;;4879562;29;20422;-81
2022/01/14 11:52:36;;;;;;;11.50;7.37;;;1.30;96.30;;;;;;4877142;29;20434;-79
2022/01/14 11:55:04;;;;;;;11.20;8.23;;;1.10;96.30;;;;;;4898219;29;20461;-81
2022/01/14 11:57:45;;;;;;;15.73;10.50;;;1.10;96.30;;;;;;4899707;29;20421;-81
2022/01/14 12:08:20;;;;;;;15.90;9.23;;;1.00;96.30;;;;;;5248543;23;20504;-80
2022/01/14 12:10:58;;;;;;;18.00;9.80;;;0.90;96.30;;;;;;4900535;29;20452;-79
2022/01/14 12:13:25;;;;;;;18.33;10.87;;;0.80;96.30;;;;;;4917245;29;20524;-78
2022/01/14 12:15:58;;;;;;;17.00;10.90;;;0.80;96.30;;;;;;4900532;29;20431;-81
2022/01/14 12:18:45;;;;;;;15.63;10.40;;;0.70;96.30;;;;;;4900886;29;20776;-80
2022/01/14 12:21:12;;;;;;;17.30;11.07;;;0.70;96.30;;;;;;4900504;29;20432;-82
2022/01/14 12:23:39;;;;;;;15.63;10.67;;;0.70;96.30;;;;;;4900375;29;20940;-81
2022/01/14 12:26:17;;;;;;;16.57;10.13;;;0.70;96.30;;;;;;4901676;29;20763;-81
2022/01/14 12:28:43;;;;;;;15.70;10.53;;;0.70;96.30;;;;;;4900988;29;20428;-81
2022/01/14 12:31:09;;;;;;;17.83;10.57;;;0.80;96.30;;;;;;4900659;29;20455;-81
2022/01/14 12:33:42;;;;;;;15.67;10.70;;;0.80;96.30;;;;;;4917676;29;20468;-80
2022/01/14 12:36:13;;;;;;;16.93;10.93;;;0.70;96.30;;;;;;4918299;29;20220;-82
2022/01/14 12:38:40;;;;;;;18.43;11.67;;;0.70;96.30;;;;;;4918082;29;20449;-81
2022/01/14 12:41:16;;;;;;;19.17;12.10;;;0.70;96.30;;;;;;4901404;29;20468;-82
2022/01/14 12:43:56;;;;;;;18.90;12.33;;;0.70;96.30;;;;;;4900898;29;20428;-81
2022/01/14 12:47:10;;;;;;;18.57;10.87;;;0.70;96.30;;;;;;4917742;29;20435;-81
2022/01/14 12:49:15;;;;;;;21.30;12.73;;;0.80;96.30;;;;;;4910835;29;20424;-81
2022/01/14 12:51:41;;;;;;;19.33;11.90;;;0.70;96.30;;;;;;4900821;29;20471;-81
2022/01/14 12:54:11;;;;;;;19.80;12.03;;;0.80;96.30;;;;;;4901263;29;21153;-82
2022/01/14 12:56:39;;;;;;;23.10;11.83;;;0.80;96.30;;;;;;4918465;29;20168;-81
2022/01/14 12:59:09;;;;;;;21.23;10.80;;;0.80;96.30;;;;;;4901123;29;20420;-82
2022/01/14 13:01:37;;;;;;;27.07;14.33;;;0.80;96.30;;;;;;4918293;29;20441;-81
2022/01/14 13:04:09;;;;;;;20.67;12.43;;;0.80;96.30;;;;;;4900071;29;20418;-81
2022/01/14 13:06:47;;;;;;;23.20;12.20;;;0.80;96.30;;;;;;4917795;29;20412;-81
2022/01/14 13:09:18;;;;;;;25.93;11.50;;;0.80;96.30;;;;;;4917460;29;20519;-81
2022/01/14 13:11:49;;;;;;;27.20;13.23;;;0.80;96.30;;;;;;4917395;29;20428;-81
2022/01/14 13:14:20;;;;;;;19.23;10.77;;;0.80;96.30;;;;;;4917220;29;20479;-81
2022/01/14 13:16:48;;;;;;;20.90;11.70;;;0.80;96.30;;;;;;4917672;29;20408;-81
2022/01/14 13:19:30;;;;;;;17.70;10.23;;;0.90;96.30;;;;;;4915936;29;20427;-81
2022/01/14 13:21:56;;;;;;;22.57;12.17;;;0.90;96.30;;;;;;4900406;29;20463;-81
2022/01/14 13:24:30;;;;;;;22.30;12.17;;;0.80;96.30;;;;;;4900719;29;20837;-82
2022/01/14 13:27:03;;;;;;;24.13;12.70;;;0.80;96.30;;;;;;4913173;29;20507;-81
2022/01/14 13:30:03;;;;;;;23.20;12.57;;;0.80;96.30;;;;;;4899117;29;20925;-82
2022/01/14 13:32:32;;;;;;;19.60;12.40;;;0.80;96.30;;;;;;4899111;29;20433;-81
2022/01/14 13:35:05;;;;;;;19.07;11.10;;;0.80;96.30;;;;;;4898925;29;20457;-82
2022/01/14 13:37:31;;;;;;;15.27;10.80;;;0.80;96.30;;;;;;4897680;29;20449;-81
2022/01/14 13:40:07;;;;;;;22.27;12.20;;;0.90;96.30;;;;;;4897548;29;20410;-82
2022/01/14 13:42:33;;;;;;;20.30;11.70;;;0.90;96.30;;;;;;4897752;29;20267;-82
2022/01/14 13:45:13;;;;;;;17.40;11.87;;;0.90;96.30;;;;;;4901804;29;20428;-82
2022/01/14 13:47:41;;;;;;;20.03;12.57;;;0.90;96.30;;;;;;4917984;29;20976;-80
2022/01/14 13:50:16;;;;;;;21.73;12.73;;;0.90;96.30;;;;;;4900845;29;20507;-82
2022/01/14 13:52:45;;;;;;;17.30;11.30;;;1.00;96.30;;;;;;4900620;29;20556;-82
2022/01/14 13:55:15;;;;;;;21.80;12.50;;;0.90;96.30;;;;;;4900104;29;20464;-81
2022/01/14 13:57:41;;;;;;;21.57;12.63;;;1.00;96.30;;;;;;4915460;29;20492;-79
2022/01/14 14:00:10;;;;;;;18.83;12.77;;;0.90;96.30;;;;;;4899100;29;20517;-79
2022/01/14 14:02:46;;;;;;;18.40;12.17;;;0.90;96.30;;;;;;4915932;29;20940;-79
2022/01/14 14:05:35;;;;;;;17.80;12.33;;;1.00;96.30;;;;;;4880890;29;20421;-80
2022/01/14 14:08:10;;;;;;;16.13;11.20;;;1.00;96.30;;;;;;4897103;29;20441;-80
2022/01/14 14:11:47;;;;;;;19.53;13.27;;;1.00;96.30;;;;;;4881766;29;20455;-82
2022/01/14 14:16:32;;;;;;;17.70;11.53;;;1.00;96.30;;;;;;4897805;29;20440;-80
2022/01/14 14:18:59;;;;;;;16.10;12.17;;;1.10;96.30;;;;;;4904537;29;20435;-80
2022/01/14 14:21:28;;;;;;;17.37;11.60;;;1.10;96.30;;;;;;4886358;29;20929;-79
2022/01/14 14:23:57;;;;;;;20.80;12.40;;;1.10;96.30;;;;;;4907400;29;21046;-81
2022/01/14 14:26:31;;;;;;;23.57;14.80;;;1.10;96.30;;;;;;4879775;29;20858;-79
2022/01/14 14:28:59;;;;;;;21.07;13.83;;;1.10;96.30;;;;;;4894307;29;20412;-80
2022/01/14 14:31:32;;;;;;;19.63;12.10;;;1.10;96.30;;;;;;4902319;29;20527;-80
2022/01/14 14:33:58;;;;;;;22.00;12.83;;;1.20;96.30;;;;;;4919071;29;20960;-78
2022/01/14 14:36:26;;;;;;;20.50;13.90;;;1.20;96.30;;;;;;4892241;29;20431;-78
2022/01/14 14:38:53;;;;;;;19.90;12.13;;;1.20;96.30;;;;;;4916305;29;21692;-78
2022/01/14 14:41:19;;;;;;;19.40;12.33;;;1.30;96.30;;;;;;4907031;29;20444;-80
2022/01/14 14:43:45;;;;;;;17.57;11.97;;;1.30;96.30;;;;;;4915607;29;20436;-80
2022/01/14 14:46:10;;;;;;;23.33;11.80;;;1.30;96.30;;;;;;4913901;29;20184;-78
2022/01/14 14:48:37;;;;;;;20.30;12.80;;;1.30;96.30;;;;;;4901941;29;20191;-78
2022/01/14 14:51:03;;;;;;;19.00;12.60;;;1.30;96.30;;;;;;4919041;29;20220;-81
2022/01/14 14:53:28;;;;;;;18.80;11.80;;;1.30;96.30;;;;;;4901915;29;20464;-78
2022/01/14 14:55:54;;;;;;;21.27;13.47;;;1.40;96.30;;;;;;4918887;29;20176;-78
2022/01/14 14:58:19;;;;;;;21.07;13.63;;;1.40;96.30;;;;;;4902079;29;20180;-80
2022/01/14 15:00:45;;;;;;;22.77;13.57;;;1.30;96.30;;;;;;4902040;29;20211;-78
2022/01/14 15:03:10;;;;;;;20.73;13.90;;;1.30;96.30;;;;;;4920742;29;20175;-81
2022/01/14 15:05:39;;;;;;;17.17;10.63;;;1.40;96.30;;;;;;4918585;29;20188;-78
2022/01/14 15:08:06;;;;;;;23.70;13.53;;;1.30;96.30;;;;;;4909509;29;20199;-77
2022/01/14 15:10:32;;;;;;;15.40;9.80;;;1.40;96.30;;;;;;4917298;29;21146;-77
2022/01/14 15:12:57;;;;;;;21.30;12.90;;;1.40;96.30;;;;;;4918570;29;20933;-76
2022/01/14 15:20:34;;;;;;;20.30;12.60;;;1.40;96.30;;;;;;4918505;29;20440;-78
2022/01/14 15:23:00;;;;;;;22.40;12.70;;;1.40;96.30;;;;;;4918249;29;20176;-77
2022/01/14 15:25:27;;;;;;;24.77;13.30;;;1.30;96.30;;;;;;4916282;29;20427;-76
2022/01/14 15:27:54;;;;;;;20.63;12.00;;;1.40;96.30;;;;;;4918398;29;20427;-76
2022/01/14 15:30:21;;;;;;;18.13;11.90;;;1.40;96.30;;;;;;4917085;29;20427;-76
2022/01/14 15:32:47;;;;;;;21.50;12.20;;;1.40;96.30;;;;;;4918285;29;20416;-77
2022/01/14 15:35:13;;;;;;;20.77;11.77;;;1.40;96.30;;;;;;4917668;29;20515;-78
2022/01/14 15:37:38;;;;;;;15.00;11.20;;;1.40;96.30;;;;;;4916801;29;20240;-78
2022/01/14 15:40:06;;;;;;;17.77;11.30;;;1.40;96.30;;;;;;4918182;29;20507;-76
2022/01/14 15:42:35;;;;;;;19.03;11.17;;;1.50;96.30;;;;;;4917497;29;20256;-77
2022/01/14 15:45:05;;;;;;;22.13;13.10;;;1.40;96.30;;;;;;4917477;29;20404;-76
2022/01/14 15:47:33;;;;;;;20.10;12.50;;;1.40;96.30;;;;;;4918114;29;20489;-76
2022/01/14 15:49:59;;;;;;;16.30;10.67;;;1.50;96.30;;;;;;4916652;29;20955;-76
2022/01/14 15:52:25;;;;;;;17.73;10.90;;;1.50;96.30;;;;;;4917868;29;20503;-76
2022/01/14 15:54:50;;;;;;;19.30;11.30;;;1.40;96.30;;;;;;4915902;29;20468;-76
2022/01/14 15:57:16;;;;;;;16.53;10.90;;;1.40;96.30;;;;;;4917699;29;20660;-76
2022/01/14 15:59:41;;;;;;;19.23;12.40;;;1.40;96.30;;;;;;4916656;29;20180;-78
2022/01/14 16:02:07;;;;;;;22.10;12.13;;;1.40;96.30;;;;;;4917719;29;20192;-76
2022/01/14 16:04:32;;;;;;;18.70;12.47;;;1.40;96.30;;;;;;4915943;29;20270;-76
2022/01/14 16:06:58;;;;;;;20.27;11.63;;;1.50;96.30;;;;;;4916065;29;20191;-76
2022/01/14 16:09:23;;;;;;;18.70;11.00;;;1.50;96.30;;;;;;4900731;29;20180;-79
2022/01/14 16:11:49;;;;;;;18.30;11.77;;;1.50;96.30;;;;;;4900672;29;20207;-76
2022/01/14 16:14:21;;;;;;;18.87;11.03;;;1.50;96.30;;;;;;4916867;29;20204;-76
2022/01/14 16:16:49;;;;;;;22.50;12.40;;;1.50;96.30;;;;;;4900512;29;20177;-76
2022/01/14 16:19:15;;;;;;;16.97;10.10;;;1.50;96.30;;;;;;4917520;29;20424;-77
2022/01/14 16:21:40;;;;;;;21.13;11.50;;;1.50;96.30;;;;;;4917482;29;20425;-76
2022/01/14 16:24:06;;;;;;;18.57;11.17;;;1.50;96.30;;;;;;4900360;29;20184;-78
2022/01/14 16:26:32;;;;;;;22.77;12.17;;;1.50;96.30;;;;;;4900258;29;20601;-76
2022/01/14 16:28:57;;;;;;;20.90;13.03;;;1.50;96.30;;;;;;4917308;29;20259;-76
2022/01/14 16:31:23;;;;;;;19.37;11.37;;;1.50;96.30;;;;;;4900161;29;20236;-77
2022/01/14 16:33:48;;;;;;;17.50;11.53;;;1.50;96.30;;;;;;4916734;29;20299;-76
2022/01/14 16:36:15;;;;;;;23.53;12.20;;;1.50;96.30;;;;;;4900357;29;20241;-76
2022/01/14 16:38:40;;;;;;;20.30;11.93;;;1.60;96.30;;;;;;4917321;29;20188;-76
2022/01/14 16:41:06;;;;;;;22.67;11.03;;;1.60;96.30;;;;;;4916902;29;20424;-77
2022/01/14 16:43:36;;;;;;;21.97;11.63;;;1.50;96.30;;;;;;4899470;29;20218;-79
2022/01/14 16:46:03;;;;;;;16.30;11.10;;;1.50;96.30;;;;;;4899596;29;20178;-79
2022/01/14 16:48:31;;;;;;;15.80;10.30;;;1.50;96.30;;;;;;4917007;29;20436;-79
2022/01/14 16:50:56;;;;;;;25.40;12.33;;;1.50;96.30;;;;;;4916785;29;20936;-78
2022/01/14 16:53:28;;;;;;;14.80;10.30;;;1.50;96.30;;;;;;4898802;29;20436;-81
2022/01/14 16:55:55;;;;;;;16.53;11.47;;;1.40;96.30;;;;;;4892828;29;20180;-81
2022/01/14 16:58:20;;;;;;;20.13;12.73;;;1.40;96.30;;;;;;4917471;29;20424;-81
2022/01/14 17:00:46;;;;;;;23.83;15.20;;;1.30;96.30;;;;;;4899458;29;20436;-81
2022/01/14 17:03:12;;;;;;;28.93;17.60;;;1.30;96.30;;;;;;4899846;29;20180;-81
2022/01/14 17:05:37;;;;;;;27.53;17.77;;;1.10;96.30;;;;;;4899442;29;20924;-81
2022/01/14 17:08:03;;;;;;;35.57;22.50;;;1.10;96.30;;;;;;4906500;29;20207;-81
2022/01/14 17:10:30;;;;;;;17.23;12.63;;;1.10;96.30;;;;;;4916711;29;20216;-81
2022/01/14 17:12:56;;;;;;;23.60;13.07;;;1.00;96.30;;;;;;4915235;29;20614;-80
2022/01/14 17:15:22;;;;;;;18.30;13.80;;;1.00;96.30;;;;;;4915892;29;20482;-78
2022/01/14 17:17:47;;;;;;;21.10;13.77;;;0.90;96.30;;;;;;4916237;29;20933;-81
2022/01/14 17:20:13;;;;;;;17.47;11.70;;;0.90;96.30;;;;;;4913615;29;20667;-81
2022/01/14 17:22:38;;;;;;;20.73;13.63;;;0.90;96.30;;;;;;4914730;29;20168;-81
2022/01/14 17:25:06;;;;;;;21.50;13.30;;;0.90;96.30;;;;;;4914010;29;20587;-81
2022/01/14 17:27:31;;;;;;;19.60;13.20;;;0.90;96.30;;;;;;4904355;29;20176;-79
2022/01/14 17:29:57;;;;;;;20.00;12.43;;;0.90;96.30;;;;;;4916024;29;20529;-80
2022/01/14 17:32:24;;;;;;;20.50;12.20;;;0.80;96.30;;;;;;4914571;29;20199;-76
2022/01/14 17:34:50;;;;;;;22.50;13.40;;;0.80;96.30;;;;;;4914284;29;20365;-77
2022/01/14 17:37:16;;;;;;;23.70;14.70;;;0.80;96.30;;;;;;4914769;29;20956;-78
2022/01/14 17:39:41;;;;;;;16.57;12.60;;;0.80;96.30;;;;;;4916056;29;20416;-79
2022/01/14 17:42:09;;;;;;;17.50;12.10;;;0.90;96.30;;;;;;4914864;29;20207;-80
2022/01/14 17:44:36;;;;;;;23.27;12.10;;;0.80;96.30;;;;;;4914758;29;20184;-80
2022/01/14 17:47:02;;;;;;;17.40;11.47;;;0.80;96.30;;;;;;4916076;29;20427;-79
2022/01/14 17:49:28;;;;;;;15.53;11.73;;;0.90;96.30;;;;;;4914762;29;20428;-77
2022/01/14 17:51:55;;;;;;;14.03;11.63;;;0.90;96.30;;;;;;4916123;29;20484;-76
2022/01/14 17:54:21;;;;;;;17.10;11.60;;;0.90;96.30;;;;;;4914573;29;20211;-78
2022/01/14 17:56:48;;;;;;;15.13;10.60;;;0.90;96.30;;;;;;4915760;29;20409;-77
2022/01/14 17:59:14;;;;;;;19.03;10.67;;;0.90;96.30;;;;;;4914673;29;20595;-77
2022/01/14 18:09:54;;;;;;;13.83;9.40;;;0.90;96.30;;;;;;4986273;23;20487;-80
2022/01/14 18:48:36;;;;;;;15.23;10.27;;;0.90;96.30;;;;;;4791562;29;20420;-79
2022/01/14 18:51:03;;;;;;;12.27;9.03;;;0.90;96.30;;;;;;4842864;29;20502;-79
2022/01/14 18:53:29;;;;;;;15.70;11.67;;;0.90;96.30;;;;;;4920333;29;20264;-79
2022/01/14 18:55:55;;;;;;;17.20;10.90;;;0.90;96.30;;;;;;4911853;29;20444;-79
2022/01/14 18:58:20;;;;;;;14.93;11.20;;;0.90;96.30;;;;;;4918801;29;20425;-79
2022/01/14 19:26:33;;;;;;;13.40;9.20;;;0.90;96.30;;;;;;4898060;29;20481;-76
2022/01/14 19:29:00;;;;;;;9.10;7.43;;;0.90;96.30;;;;;;4899072;29;20906;-77
2022/01/14 19:31:25;;;;;;;13.27;8.60;;;0.90;96.30;;;;;;4897820;29;20460;-79
2022/01/14 19:33:51;;;;;;;9.80;7.37;;;1.00;96.30;;;;;;4881760;29;20958;-78